LEVC

Valencia

Airport
ICAO code
LEVC
Summary
ICAO Region
EUR
ICAO Territory
Location

Manises,

Coordinates
39° 29' 21" N , 0° 28' 54" W
KCC
Metar
Observation
LEVC 252000Z 09003KT 030V140 9999 SHRA SCT014 BKN024 FEW025CB 19/18 Q1012 RETS NOSIG
Station
Valencia / Aeropuerto
Date/Time
2022-09-25 20:00:00
Wind direction
90°
Wind speed
03 kts
Lowest cloud amount
scattered clouds
Temperature
19°C
Dew point
18°C
Humidity
93%
QNH
1012 hPa
Weather condition
showers rain

Description

Valencia Airport in Manises, also known as Manises Airport. It is situated 8 km west of the city of Valencia.

Climatology

Dry-summer subtropical ”Mediterranean" climate (Köppen climate classification Csa) - characterized by hot, dry summers and mild winters. During the summer, subtropical high pressure cells dominate, making rainfall unlikely except for the occasional thunderstorm. In the winter, periodic storms bring rain (snow at higher elevations).

Runways

Designator Length Width Surface Rops
4/22 1644 45 ASP Yes/Yes
12/30 2700 45 ASP Yes/Yes

Airport map

Aerial View

SKYbrary Partners:

Safety knowledge contributed by: